createdAt,value
2023-12-20T00:00:50.645Z,1.33
2023-12-20T00:03:20.246Z,2.17
2023-12-20T00:05:50.555Z,4.90
2023-12-20T00:08:20.237Z,7.03
2023-12-20T00:10:49.787Z,3.50
2023-12-20T00:13:19.208Z,3.70
2023-12-20T00:15:50.053Z,5.80
2023-12-20T00:18:20.276Z,4.30
2023-12-20T00:20:49.676Z,3.33
2023-12-20T00:23:19.141Z,2.15
2023-12-20T00:25:48.703Z,1.63
2023-12-20T00:28:18.204Z,2.00
2023-12-20T00:30:49.216Z,2.10
2023-12-20T00:33:18.915Z,1.92
2023-12-20T00:35:48.437Z,1.63
2023-12-20T00:38:17.933Z,2.10
2023-12-20T00:40:47.367Z,1.70
2023-12-20T00:46:01.782Z,1.50
2023-12-20T00:48:31.676Z,1.92
2023-12-20T00:51:01.294Z,0.55
2023-12-20T00:53:30.652Z,0.90
2023-12-20T00:56:00.889Z,0.98
2023-12-20T00:58:30.540Z,3.22
2023-12-20T01:01:01.562Z,1.20
2023-12-20T01:03:31.075Z,1.33
2023-12-20T01:06:00.701Z,1.58
2023-12-20T01:08:30.110Z,1.10
2023-12-20T01:10:59.592Z,1.40
2023-12-20T01:13:29.038Z,1.88
2023-12-20T01:16:00.260Z,2.03
2023-12-20T01:18:29.781Z,2.05
2023-12-20T01:20:59.306Z,1.77
2023-12-20T01:23:28.805Z,2.85
2023-12-20T01:26:00.929Z,2.20
2023-12-20T01:28:31.177Z,2.10
2023-12-20T01:31:02.665Z,1.48
2023-12-20T01:33:32.236Z,1.70
2023-12-20T01:36:01.801Z,1.92
2023-12-20T01:38:31.206Z,1.80
2023-12-20T01:41:00.692Z,1.42
2023-12-20T01:43:33.144Z,1.83
2023-12-20T01:46:04.856Z,3.33
2023-12-20T01:48:34.628Z,4.75
2023-12-20T01:51:05.097Z,2.92
2023-12-20T01:53:35.531Z,2.65
2023-12-20T01:56:05.550Z,1.45
2023-12-20T01:58:35.301Z,2.20
2023-12-20T02:01:06.315Z,1.83
2023-12-20T02:03:38.104Z,3.13
2023-12-20T02:06:08.756Z,2.50
2023-12-20T02:08:38.348Z,2.58
2023-12-20T02:11:07.709Z,1.90
2023-12-20T02:13:37.287Z,2.15
2023-12-20T02:16:08.840Z,1.95
2023-12-20T02:18:38.429Z,2.35
2023-12-20T02:21:08.424Z,1.52
2023-12-20T02:23:39.652Z,1.75
2023-12-20T02:26:09.288Z,1.58
2023-12-20T02:28:38.989Z,1.30
2023-12-20T02:31:08.510Z,1.08
2023-12-20T02:33:37.942Z,1.48
2023-12-20T02:36:09.113Z,1.50
2023-12-20T02:38:39.923Z,0.88
2023-12-20T02:41:09.310Z,1.30
2023-12-20T02:43:38.680Z,1.88
2023-12-20T02:46:08.057Z,1.85
2023-12-20T02:48:37.685Z,1.45
2023-12-20T02:51:07.523Z,2.63
2023-12-20T02:53:38.457Z,2.67
2023-12-20T02:56:08.725Z,0.65
2023-12-20T02:58:38.166Z,0.90
2023-12-20T03:01:07.710Z,0.43
2023-12-20T03:03:37.113Z,4.43
2023-12-20T03:06:07.327Z,1.13
2023-12-20T03:08:36.827Z,2.10
2023-12-20T03:11:07.976Z,1.20
2023-12-20T03:13:37.420Z,2.03
2023-12-20T03:16:12.349Z,1.65
2023-12-20T03:18:41.830Z,1.92
2023-12-20T03:21:11.390Z,2.40
2023-12-20T03:23:40.812Z,3.40
2023-12-20T03:26:12.609Z,1.48
2023-12-20T03:28:42.017Z,0.80
2023-12-20T03:31:13.462Z,0.57
2023-12-20T03:33:43.030Z,0.88
2023-12-20T03:36:12.700Z,0.55
2023-12-20T03:38:42.353Z,0.65
2023-12-20T03:41:13.640Z,0.77
2023-12-20T03:47:00.800Z,1.08
2023-12-20T03:49:30.345Z,1.15
2023-12-20T03:52:00.004Z,2.28
2023-12-20T03:54:29.409Z,2.08
2023-12-20T03:56:58.909Z,0.55
2023-12-20T03:59:28.229Z,1.08
2023-12-20T04:01:57.575Z,1.55
2023-12-20T04:04:28.535Z,2.17
2023-12-20T04:06:58.170Z,1.45
2023-12-20T04:09:27.628Z,2.08
2023-12-20T04:11:57.182Z,2.30
2023-12-20T04:14:26.904Z,1.73
2023-12-20T04:16:56.357Z,2.33
2023-12-20T04:19:27.183Z,1.63
2023-12-20T04:21:56.600Z,1.40
2023-12-20T04:24:26.069Z,1.83
2023-12-20T04:26:55.545Z,1.42
2023-12-20T04:29:25.040Z,3.72
2023-12-20T04:31:54.546Z,2.40
2023-12-20T04:34:24.862Z,1.67
2023-12-20T04:36:56.351Z,2.47
2023-12-20T04:39:25.752Z,3.80
2023-12-20T04:41:55.079Z,4.00
2023-12-20T04:44:24.914Z,5.60
2023-12-20T04:46:54.339Z,4.70
2023-12-20T04:49:23.867Z,3.10
2023-12-20T04:51:54.801Z,2.83
2023-12-20T04:54:24.170Z,1.35
2023-12-20T04:56:53.546Z,1.40
2023-12-20T04:59:22.951Z,1.45
2023-12-20T05:01:53.221Z,1.83
2023-12-20T05:04:23.166Z,2.20
2023-12-20T05:06:52.826Z,1.33
2023-12-20T05:09:23.666Z,0.93
2023-12-20T05:11:53.479Z,1.23
2023-12-20T05:14:22.760Z,1.67
2023-12-20T05:16:52.258Z,1.20
2023-12-20T05:19:21.592Z,2.45
2023-12-20T05:21:51.172Z,0.73
2023-12-20T05:24:20.428Z,1.38
2023-12-20T05:26:53.799Z,1.27
2023-12-20T05:29:23.962Z,1.00
2023-12-20T05:31:53.503Z,3.75
2023-12-20T05:34:22.984Z,7.10
2023-12-20T05:36:52.876Z,1.75
2023-12-20T05:39:22.465Z,7.28
2023-12-20T05:41:53.341Z,4.50
2023-12-20T05:44:22.825Z,2.95
2023-12-20T05:46:52.189Z,3.17
2023-12-20T05:49:21.786Z,3.58
2023-12-20T05:51:51.478Z,5.55
2023-12-20T05:54:20.868Z,1.75
2023-12-20T05:56:52.025Z,1.30
2023-12-20T05:59:21.473Z,1.77
2023-12-20T06:01:51.045Z,0.93
2023-12-20T06:04:22.563Z,1.15
2023-12-20T06:06:53.393Z,0.93
2023-12-20T06:09:23.069Z,2.53
2023-12-20T06:11:54.004Z,1.67
2023-12-20T06:14:23.343Z,1.73
2023-12-20T06:16:52.900Z,2.35
2023-12-20T06:19:22.403Z,6.10
2023-12-20T06:21:52.165Z,2.42
2023-12-20T06:24:22.787Z,2.22
2023-12-20T06:26:53.748Z,3.80
2023-12-20T06:29:23.055Z,2.10
2023-12-20T06:31:54.664Z,6.63
2023-12-20T06:34:24.407Z,4.15
2023-12-20T06:36:53.938Z,5.57
2023-12-20T06:39:23.267Z,6.25
2023-12-20T06:41:54.365Z,11.77
2023-12-20T06:47:01.068Z,1.63
2023-12-20T06:49:30.476Z,2.83
2023-12-20T06:52:00.036Z,3.15
2023-12-20T06:54:29.545Z,2.60
2023-12-20T06:56:58.916Z,4.38
2023-12-20T06:59:28.356Z,3.15
2023-12-20T07:01:57.818Z,3.35
2023-12-20T07:04:28.773Z,2.53
2023-12-20T07:07:01.526Z,3.45
2023-12-20T07:09:30.968Z,3.03
2023-12-20T07:12:00.741Z,2.97
2023-12-20T07:14:30.647Z,4.38
2023-12-20T07:17:00.056Z,2.17
2023-12-20T07:19:31.125Z,2.25
2023-12-20T07:22:00.946Z,4.57
2023-12-20T07:24:30.473Z,2.88
2023-12-20T07:26:59.873Z,2.75
2023-12-20T07:29:30.096Z,2.78
2023-12-20T07:31:59.508Z,2.78
2023-12-20T07:34:30.442Z,3.15
2023-12-20T07:36:59.971Z,4.28
2023-12-20T07:39:29.482Z,5.18
2023-12-20T07:41:59.112Z,5.60
2023-12-20T07:44:28.472Z,4.60
2023-12-20T07:46:59.246Z,4.78
2023-12-20T07:49:30.165Z,6.00
2023-12-20T07:52:00.033Z,5.40
2023-12-20T07:54:29.448Z,5.55
2023-12-20T07:56:59.757Z,5.82
2023-12-20T07:59:32.914Z,21.95
2023-12-20T08:02:02.914Z,17.83
2023-12-20T08:04:34.117Z,10.57
2023-12-20T08:07:03.941Z,8.43
2023-12-20T08:09:33.393Z,6.00
2023-12-20T08:12:03.292Z,4.07
2023-12-20T08:14:32.899Z,4.93
2023-12-20T08:17:02.353Z,4.95
2023-12-20T08:19:33.404Z,3.83
2023-12-20T08:22:03.058Z,4.03
2023-12-20T08:24:33.585Z,20.83
2023-12-20T08:27:03.217Z,16.60
2023-12-20T08:29:32.632Z,7.75
2023-12-20T08:32:03.287Z,4.35
2023-12-20T08:34:34.210Z,2.88
2023-12-20T08:37:03.778Z,2.65
2023-12-20T08:39:34.866Z,1.65
2023-12-20T08:42:04.525Z,3.10
2023-12-20T08:44:34.048Z,3.60
2023-12-20T08:47:03.451Z,3.50
2023-12-20T08:49:34.498Z,4.43
2023-12-20T08:52:04.213Z,3.95
2023-12-20T08:54:33.813Z,8.85
2023-12-20T08:57:03.243Z,6.45
2023-12-20T08:59:32.715Z,7.57
2023-12-20T09:02:02.199Z,4.13
2023-12-20T09:04:33.184Z,4.05
2023-12-20T09:07:03.789Z,4.05
2023-12-20T09:09:34.651Z,3.97
2023-12-20T09:12:04.206Z,2.35
2023-12-20T09:14:33.770Z,3.53
2023-12-20T09:17:04.707Z,3.80
2023-12-20T09:19:35.837Z,5.47
2023-12-20T09:22:05.651Z,3.38
2023-12-20T09:24:35.198Z,4.32
2023-12-20T09:27:04.913Z,4.75
2023-12-20T09:29:34.481Z,4.63
2023-12-20T09:32:04.094Z,4.70
2023-12-20T09:34:35.234Z,5.85
2023-12-20T09:37:05.042Z,5.50
2023-12-20T09:39:34.477Z,5.70
2023-12-20T09:42:05.909Z,6.22
2023-12-20T09:47:01.250Z,5.75
2023-12-20T09:49:32.125Z,7.22
2023-12-20T09:52:03.602Z,5.30
2023-12-20T09:54:33.310Z,5.47
2023-12-20T09:57:02.697Z,5.70
2023-12-20T09:59:32.133Z,7.97
2023-12-20T10:02:09.406Z,8.32
2023-12-20T10:04:39.089Z,9.38
2023-12-20T10:07:09.751Z,6.82
2023-12-20T10:09:39.891Z,8.13
2023-12-20T10:12:10.462Z,7.35
2023-12-20T10:14:41.199Z,5.47
2023-12-20T10:17:12.183Z,6.50
2023-12-20T10:19:41.754Z,8.38
2023-12-20T10:22:11.371Z,6.80
2023-12-20T10:24:40.888Z,7.20
2023-12-20T10:27:11.884Z,6.05
2023-12-20T10:29:41.903Z,6.07
2023-12-20T10:32:28.546Z,8.32
2023-12-20T10:35:00.941Z,6.15
2023-12-20T10:37:30.592Z,6.30
2023-12-20T10:40:03.380Z,7.32
2023-12-20T10:45:03.311Z,6.10
2023-12-20T10:47:37.568Z,5.53
2023-12-20T10:50:12.082Z,5.68
2023-12-20T10:52:42.165Z,6.17
2023-12-20T10:55:12.243Z,5.38
2023-12-20T10:57:43.369Z,7.88
2023-12-20T11:00:19.655Z,5.35
2023-12-20T11:02:53.804Z,5.35
2023-12-20T11:05:41.390Z,6.80
2023-12-20T11:08:16.911Z,7.95
2023-12-20T11:10:57.903Z,7.07
2023-12-20T11:13:34.234Z,7.93
2023-12-20T11:16:04.873Z,7.05
2023-12-20T11:18:36.124Z,7.47
2023-12-20T11:21:07.849Z,7.78
2023-12-20T11:23:37.805Z,8.68
2023-12-20T11:26:07.392Z,10.77
2023-12-20T11:28:36.892Z,8.35
2023-12-20T11:31:06.973Z,9.85
2023-12-20T11:33:41.478Z,8.38
2023-12-20T11:36:17.670Z,7.57
2023-12-20T11:39:04.983Z,8.95
2023-12-20T11:41:36.345Z,7.68
2023-12-20T11:44:08.232Z,9.25
2023-12-20T11:46:37.888Z,6.70
2023-12-20T11:49:09.006Z,7.45
2023-12-20T11:51:38.623Z,5.55
2023-12-20T11:54:10.389Z,5.07
2023-12-20T11:56:40.027Z,4.55
2023-12-20T11:59:20.323Z,5.43
2023-12-20T12:01:53.602Z,5.22
2023-12-20T12:04:24.761Z,6.95
2023-12-20T12:06:54.518Z,6.32
2023-12-20T12:09:23.950Z,6.13
2023-12-20T12:11:53.653Z,7.00
2023-12-20T12:14:23.343Z,7.68
2023-12-20T12:16:54.767Z,6.65
2023-12-20T12:19:26.445Z,7.72
2023-12-20T12:22:12.298Z,10.20
2023-12-20T12:24:42.626Z,9.48
2023-12-20T12:27:12.561Z,11.07
2023-12-20T12:29:42.416Z,8.90
2023-12-20T12:32:13.143Z,9.88
2023-12-20T12:34:44.307Z,11.35
2023-12-20T12:37:13.986Z,11.02
2023-12-20T12:39:44.352Z,12.20
2023-12-20T12:42:13.756Z,9.30
2023-12-20T12:47:00.961Z,8.93
2023-12-20T12:49:32.162Z,9.60
2023-12-20T12:52:01.708Z,10.10
2023-12-20T12:54:31.193Z,11.48
2023-12-20T12:57:00.754Z,11.68
2023-12-20T12:59:30.299Z,12.43
2023-12-20T13:02:01.322Z,15.35
2023-12-20T13:04:30.865Z,11.10
2023-12-20T13:07:00.783Z,12.90
2023-12-20T13:09:30.398Z,12.52
2023-12-20T13:12:00.536Z,16.83
2023-12-20T13:14:30.003Z,13.95
2023-12-20T13:17:01.269Z,13.05
2023-12-20T13:19:31.719Z,17.95
2023-12-20T13:22:01.729Z,13.40
2023-12-20T13:24:31.197Z,13.10
2023-12-20T13:27:00.972Z,14.43
2023-12-20T13:29:30.318Z,15.35
2023-12-20T13:32:01.520Z,14.73
2023-12-20T13:34:31.068Z,17.67
2023-12-20T13:37:01.149Z,11.82
2023-12-20T13:39:31.206Z,12.50
2023-12-20T13:42:01.349Z,11.27
2023-12-20T13:44:32.199Z,13.05
2023-12-20T13:47:03.782Z,11.10
2023-12-20T13:49:33.403Z,10.88
2023-12-20T13:52:04.424Z,10.75
2023-12-20T13:54:33.875Z,10.10
2023-12-20T13:57:09.538Z,12.15
2023-12-20T13:59:46.459Z,21.92
2023-12-20T14:02:17.758Z,24.25
2023-12-20T14:04:47.280Z,28.50
2023-12-20T14:07:16.794Z,21.98
2023-12-20T14:09:47.561Z,22.50
2023-12-20T14:12:17.641Z,15.38
2023-12-20T14:14:47.073Z,12.57
2023-12-20T14:17:17.965Z,11.75
2023-12-20T14:19:47.701Z,9.35
2023-12-20T14:22:18.252Z,11.18
2023-12-20T14:24:48.287Z,11.77
2023-12-20T14:27:17.712Z,10.95
2023-12-20T14:29:47.151Z,13.02
2023-12-20T14:32:18.035Z,13.00
2023-12-20T14:34:47.686Z,13.38
2023-12-20T14:37:18.385Z,12.02
2023-12-20T14:39:47.993Z,11.57
2023-12-20T14:42:17.685Z,11.18
2023-12-20T14:44:47.204Z,11.18
2023-12-20T14:47:18.091Z,10.25
2023-12-20T14:49:49.228Z,11.75
2023-12-20T14:52:20.125Z,9.93
2023-12-20T14:54:50.058Z,13.63
2023-12-20T14:57:19.991Z,11.13
2023-12-20T14:59:49.376Z,10.75
2023-12-20T15:02:20.450Z,14.70
2023-12-20T15:04:49.920Z,12.02
2023-12-20T15:07:19.589Z,10.80
2023-12-20T15:09:49.179Z,10.18
2023-12-20T15:12:19.026Z,11.93
2023-12-20T15:14:48.439Z,13.85
2023-12-20T15:17:19.457Z,18.48
2023-12-20T15:19:49.153Z,53.55
2023-12-20T15:22:18.637Z,71.32
2023-12-20T15:24:48.614Z,35.42
2023-12-20T15:27:18.029Z,33.92
2023-12-20T15:29:47.785Z,31.60
2023-12-20T15:32:20.162Z,16.83
2023-12-20T15:34:50.130Z,30.30
2023-12-20T15:37:19.596Z,24.33
2023-12-20T15:39:49.155Z,28.58
2023-12-20T15:42:18.579Z,23.30
2023-12-20T15:47:01.049Z,19.05
2023-12-20T15:49:30.542Z,17.90
2023-12-20T15:52:00.844Z,12.40
2023-12-20T15:54:31.604Z,16.80
2023-12-20T15:57:01.189Z,16.50
2023-12-20T15:59:30.660Z,18.10
2023-12-20T16:02:01.816Z,25.00
2023-12-20T16:04:31.375Z,27.55
2023-12-20T16:07:01.000Z,35.00
2023-12-20T16:09:30.698Z,21.90
2023-12-20T16:12:00.802Z,21.65
2023-12-20T16:14:30.997Z,27.58
2023-12-20T16:17:01.998Z,58.65
2023-12-20T16:19:31.616Z,55.47
2023-12-20T16:22:03.298Z,49.22
2023-12-20T16:24:33.899Z,28.33
2023-12-20T16:27:04.282Z,28.13
2023-12-20T16:29:33.787Z,25.98
2023-12-20T16:32:04.912Z,25.40
2023-12-20T16:34:34.586Z,21.27
2023-12-20T16:37:04.174Z,21.48
2023-12-20T16:39:33.929Z,17.23
2023-12-20T16:42:03.502Z,19.77
2023-12-20T16:44:32.985Z,14.18
2023-12-20T16:47:06.606Z,18.38
2023-12-20T16:49:36.158Z,20.75
2023-12-20T16:52:06.395Z,20.75
2023-12-20T16:54:35.923Z,22.42
2023-12-20T16:57:05.482Z,20.40
2023-12-20T16:59:34.961Z,19.25
2023-12-20T17:02:06.344Z,19.58
2023-12-20T17:04:37.407Z,32.42
2023-12-20T17:07:07.201Z,29.48
2023-12-20T17:09:36.701Z,33.42
2023-12-20T17:12:07.063Z,23.48
2023-12-20T17:14:36.590Z,15.82
2023-12-20T17:17:09.588Z,17.25
2023-12-20T17:19:39.008Z,14.25
2023-12-20T17:22:09.928Z,12.02
2023-12-20T17:24:39.428Z,13.80
2023-12-20T17:27:09.601Z,13.50
2023-12-20T17:29:39.183Z,16.05
2023-12-20T17:32:10.412Z,13.18
2023-12-20T17:34:40.012Z,12.20
2023-12-20T17:37:09.790Z,12.68
2023-12-20T17:39:39.318Z,13.27
2023-12-20T17:42:10.572Z,13.32
2023-12-20T17:44:41.153Z,11.15
2023-12-20T17:47:12.127Z,11.95
2023-12-20T17:49:41.683Z,13.75
2023-12-20T17:52:11.166Z,16.73
2023-12-20T17:54:40.800Z,57.40
2023-12-20T17:57:10.213Z,44.70
2023-12-20T17:59:41.309Z,22.25
2023-12-20T18:02:12.124Z,18.23
2023-12-20T18:04:41.635Z,24.20
2023-12-20T18:07:11.257Z,24.15
2023-12-20T18:09:40.637Z,36.72
2023-12-20T18:12:12.135Z,31.60
2023-12-20T18:14:41.539Z,34.30
2023-12-20T18:17:12.332Z,25.38
2023-12-20T18:19:41.979Z,20.67
2023-12-20T18:22:11.454Z,53.80
2023-12-20T18:24:40.955Z,51.75
2023-12-20T18:27:10.453Z,51.03
2023-12-20T18:29:39.924Z,35.33
2023-12-20T18:32:11.301Z,14.18
2023-12-20T18:34:40.805Z,20.73
2023-12-20T18:37:12.215Z,18.73
2023-12-20T18:39:41.786Z,19.30
2023-12-20T18:42:11.331Z,22.40
2023-12-20T18:47:01.000Z,18.35
2023-12-20T18:49:30.595Z,18.95
2023-12-20T18:52:00.240Z,22.70
2023-12-20T18:54:29.782Z,20.42
2023-12-20T18:56:59.365Z,24.58
2023-12-20T18:59:29.184Z,45.78
2023-12-20T19:02:01.633Z,57.05
2023-12-20T19:04:31.300Z,66.13
2023-12-20T19:07:01.273Z,45.45
2023-12-20T19:09:31.301Z,32.63
2023-12-20T19:12:00.908Z,42.85
2023-12-20T19:14:30.272Z,38.45
2023-12-20T19:17:02.575Z,34.35
2023-12-20T19:19:32.129Z,44.15
2023-12-20T19:22:01.882Z,27.58
2023-12-20T19:24:31.569Z,31.65
2023-12-20T19:27:01.081Z,69.97
2023-12-20T19:29:30.572Z,74.97
2023-12-20T19:32:01.694Z,36.05
2023-12-20T19:34:31.738Z,27.38
2023-12-20T19:37:01.363Z,34.70
2023-12-20T19:39:30.754Z,36.50
2023-12-20T19:42:00.216Z,33.60
2023-12-20T19:44:29.599Z,21.88
2023-12-20T19:47:00.486Z,28.88
2023-12-20T19:49:29.930Z,33.75
2023-12-20T19:52:00.589Z,34.05
2023-12-20T19:54:30.046Z,34.67
2023-12-20T19:56:59.424Z,31.92
2023-12-20T19:59:28.941Z,37.55
2023-12-20T20:02:01.881Z,28.27
2023-12-20T20:04:31.589Z,20.15
2023-12-20T20:07:01.082Z,36.00
2023-12-20T20:09:30.683Z,30.75
2023-12-20T20:12:00.045Z,35.67
2023-12-20T20:14:30.324Z,23.88
2023-12-20T20:17:02.855Z,28.30
2023-12-20T20:19:32.870Z,25.08
2023-12-20T20:22:02.401Z,30.00
2023-12-20T20:24:31.890Z,19.00
2023-12-20T20:27:01.438Z,25.23
2023-12-20T20:29:30.944Z,16.83
2023-12-20T20:32:01.870Z,19.90
2023-12-20T20:34:31.471Z,23.45
2023-12-20T20:37:01.347Z,16.60
2023-12-20T20:39:30.882Z,17.67
2023-12-20T20:42:00.381Z,14.35
2023-12-20T20:44:29.791Z,17.40
2023-12-20T20:47:01.805Z,21.45
2023-12-20T20:49:31.337Z,18.60
2023-12-20T20:52:00.935Z,17.83
2023-12-20T20:54:30.503Z,17.98
2023-12-20T20:57:00.164Z,18.15
2023-12-20T20:59:29.663Z,22.17
2023-12-20T21:02:00.663Z,16.60
2023-12-20T21:04:30.052Z,12.50
2023-12-20T21:06:59.567Z,12.73
2023-12-20T21:09:29.905Z,10.50
2023-12-20T21:11:59.307Z,15.18
2023-12-20T21:14:28.685Z,12.32
2023-12-20T21:16:58.288Z,14.05
2023-12-20T21:19:29.299Z,14.77
2023-12-20T21:21:58.836Z,15.73
2023-12-20T21:24:28.560Z,14.50
2023-12-20T21:26:58.090Z,16.42
2023-12-20T21:29:27.527Z,10.90
2023-12-20T21:31:56.995Z,11.40
2023-12-20T21:34:28.059Z,13.48
2023-12-20T21:36:58.575Z,9.13
2023-12-20T21:39:28.732Z,7.93
2023-12-20T21:41:58.163Z,6.10
2023-12-20T21:47:00.608Z,6.78
2023-12-20T21:49:30.160Z,8.45
2023-12-20T21:51:59.660Z,9.73
2023-12-20T21:54:29.074Z,12.10
2023-12-20T21:56:58.465Z,8.23
2023-12-20T21:59:28.130Z,5.53
2023-12-20T22:01:59.119Z,5.63
2023-12-20T22:04:28.679Z,7.07
2023-12-20T22:06:58.235Z,8.85
2023-12-20T22:09:27.643Z,10.93
2023-12-20T22:11:57.144Z,9.77
2023-12-20T22:14:27.078Z,9.15
2023-12-20T22:16:56.652Z,6.63
2023-12-20T22:19:27.648Z,11.93
2023-12-20T22:21:57.299Z,8.40
2023-12-20T22:24:26.863Z,12.25
2023-12-20T22:26:56.830Z,16.80
2023-12-20T22:29:27.254Z,16.63
2023-12-20T22:31:56.950Z,20.38
2023-12-20T22:34:27.926Z,17.02
2023-12-20T22:36:58.135Z,20.65
2023-12-20T22:39:27.708Z,24.45
2023-12-20T22:41:57.213Z,18.35
2023-12-20T22:44:26.742Z,19.40
2023-12-20T22:46:56.299Z,20.55
2023-12-20T22:49:27.750Z,17.33
2023-12-20T22:51:57.370Z,18.20
2023-12-20T22:54:26.873Z,17.27
2023-12-20T22:56:56.527Z,14.82
2023-12-20T22:59:27.097Z,19.58
2023-12-20T23:01:56.825Z,14.75
2023-12-20T23:04:27.986Z,12.95
2023-12-20T23:06:57.594Z,10.32
2023-12-20T23:09:27.029Z,9.30
2023-12-20T23:11:56.845Z,9.25
2023-12-20T23:14:26.345Z,8.18
2023-12-20T23:16:55.996Z,8.38
2023-12-20T23:19:30.614Z,7.35
2023-12-20T23:22:00.306Z,6.50
2023-12-20T23:24:29.790Z,9.20
2023-12-20T23:26:59.268Z,7.10
2023-12-20T23:29:28.944Z,6.57
2023-12-20T23:31:58.733Z,6.80
2023-12-20T23:34:29.979Z,7.05
2023-12-20T23:36:59.574Z,6.65
2023-12-20T23:39:28.934Z,6.57
2023-12-20T23:41:58.892Z,7.72
2023-12-20T23:44:28.289Z,8.40
2023-12-20T23:46:58.669Z,6.93
2023-12-20T23:49:30.389Z,8.75
2023-12-20T23:52:00.471Z,10.65
2023-12-20T23:54:29.973Z,6.95
2023-12-20T23:56:59.385Z,7.43
2023-12-20T23:59:28.841Z,7.15
